createdAt,value
2023-03-15T10:57:36.654Z,14.07
2023-03-15T11:08:06.537Z,15.27
2023-03-15T11:18:44.294Z,15.83
2023-03-15T11:21:15.419Z,15.46
2023-03-15T11:23:55.849Z,15.72
2023-03-15T11:29:11.140Z,15.14
2023-03-15T11:31:38.093Z,12.69
2023-03-15T11:34:39.886Z,10.45
2023-03-15T11:37:30.046Z,8.92
2023-03-15T11:40:13.236Z,8.47
2023-03-15T11:43:36.256Z,9.38
2023-03-15T11:46:14.725Z,8.86
2023-03-15T11:48:47.539Z,10.62
2023-03-15T11:51:14.506Z,12.75
2023-03-15T11:53:56.887Z,14.90
2023-03-15T11:56:27.772Z,15.95
2023-03-15T11:59:12.961Z,16.63
2023-03-15T12:01:50.864Z,16.68
2023-03-15T12:04:39.100Z,16.47
2023-03-15T12:07:27.778Z,16.70
2023-03-15T12:10:03.367Z,17.43
2023-03-15T12:12:29.692Z,17.00
2023-03-15T12:15:14.687Z,13.60
2023-03-15T12:17:51.669Z,11.80
2023-03-15T12:20:39.373Z,10.67
2023-03-15T12:23:12.561Z,10.30
2023-03-15T12:25:55.162Z,11.08
2023-03-15T12:29:05.973Z,11.81
2023-03-15T12:31:53.577Z,14.84
2023-03-15T12:34:59.660Z,17.11
2023-03-15T12:37:46.512Z,18.03
2023-03-15T12:40:16.145Z,17.04
2023-03-15T12:42:42.558Z,17.23
2023-03-15T12:45:18.143Z,17.53
2023-03-15T12:48:12.730Z,17.43
2023-03-15T12:50:46.071Z,17.76
2023-03-15T12:53:31.017Z,17.99
2023-03-15T12:56:11.448Z,17.70
2023-03-15T12:58:41.325Z,17.77
2023-03-15T13:01:08.186Z,17.78
2023-03-15T13:03:35.532Z,14.86
2023-03-15T13:06:43.687Z,12.15
2023-03-15T13:09:12.866Z,13.58
2023-03-15T13:12:01.550Z,15.84
2023-03-15T13:14:56.459Z,17.06
2023-03-15T13:17:34.270Z,16.07
2023-03-15T13:20:17.556Z,15.29
2023-03-15T13:22:59.565Z,13.82
2023-03-15T13:25:34.227Z,12.21
2023-03-15T13:28:16.277Z,12.34
2023-03-15T13:30:52.512Z,15.25
2023-03-15T13:33:31.775Z,14.81
2023-03-15T13:36:04.775Z,12.38
2023-03-15T13:38:39.758Z,11.48
2023-03-15T13:41:17.608Z,12.12
2023-03-15T13:43:44.576Z,14.51
2023-03-15T13:46:11.147Z,13.16
2023-03-15T13:59:49.619Z,12.67
2023-03-15T14:02:21.982Z,11.87
2023-03-15T14:04:53.281Z,13.47
2023-03-15T14:07:44.285Z,12.37
2023-03-15T14:10:16.821Z,11.45
2023-03-15T14:12:45.024Z,10.99
2023-03-15T14:15:42.965Z,11.42
2023-03-15T14:18:09.402Z,14.07
2023-03-15T14:20:47.316Z,15.16
2023-03-15T14:23:19.004Z,15.88
2023-03-15T14:25:55.515Z,13.00
2023-03-15T14:28:22.169Z,11.17
2023-03-15T14:30:55.014Z,13.43
2023-03-15T14:33:38.859Z,14.77
2023-03-15T14:36:10.112Z,15.32
2023-03-15T14:38:39.666Z,15.48
2023-03-15T14:41:28.068Z,16.32
2023-03-15T14:43:54.462Z,16.92
2023-03-15T14:46:21.094Z,17.49
2023-03-15T14:48:49.934Z,17.86
2023-03-15T14:51:19.804Z,18.62
2023-03-15T14:53:49.186Z,18.26
2023-03-15T14:56:16.082Z,17.33
2023-03-15T14:58:43.559Z,14.42
2023-03-15T15:01:14.995Z,13.99
2023-03-15T15:04:03.046Z,15.42
2023-03-15T15:06:31.940Z,16.12
2023-03-15T15:09:00.030Z,16.49
2023-03-15T15:11:27.240Z,16.97
2023-03-15T15:13:53.944Z,17.31
2023-03-15T15:16:20.527Z,17.49
2023-03-15T15:18:46.961Z,16.83
2023-03-15T15:21:25.586Z,14.09
2023-03-15T15:23:58.550Z,12.30
2023-03-15T15:26:28.391Z,11.92
2023-03-15T15:28:56.417Z,13.78
2023-03-15T15:31:24.770Z,15.29
2023-03-15T15:33:52.416Z,16.29
2023-03-15T15:36:34.801Z,17.05
2023-03-15T15:39:06.521Z,17.55
2023-03-15T15:41:33.575Z,17.94
2023-03-15T15:44:00.458Z,17.97
2023-03-15T15:46:27.754Z,17.84
2023-03-15T15:48:54.524Z,17.85
2023-03-15T15:51:26.988Z,16.95
2023-03-15T15:53:55.567Z,16.67
2023-03-15T15:56:23.919Z,16.36
2023-03-15T15:58:50.320Z,16.13
2023-03-15T16:01:16.807Z,16.25
2023-03-15T16:03:43.282Z,16.10
2023-03-15T16:06:14.915Z,16.02
2023-03-15T16:08:41.726Z,16.27
2023-03-15T16:11:08.061Z,16.16
2023-03-15T16:13:34.774Z,15.90
2023-03-15T16:16:01.214Z,15.45
2023-03-15T16:18:27.588Z,15.26
2023-03-15T16:20:54.230Z,15.00
2023-03-15T16:23:22.739Z,14.73
2023-03-15T16:25:50.792Z,14.76
2023-03-15T16:28:17.318Z,14.62
2023-03-15T16:30:49.881Z,13.35
2023-03-15T16:33:19.583Z,11.74
2023-03-15T16:35:49.846Z,10.71
2023-03-15T16:38:24.105Z,9.95
2023-03-15T16:40:53.027Z,9.49
2023-03-15T16:43:19.993Z,9.03
2023-03-15T16:45:46.922Z,8.84
2023-03-15T16:48:14.289Z,8.59
2023-03-15T16:50:42.483Z,8.39
2023-03-15T16:53:10.905Z,8.14
2023-03-15T16:55:38.325Z,7.94
2023-03-15T16:58:15.073Z,7.72
2023-03-15T17:00:44.337Z,7.51
2023-03-15T17:03:10.855Z,7.41
2023-03-15T17:05:37.327Z,7.22
2023-03-15T17:08:04.603Z,7.25
2023-03-15T17:10:32.317Z,7.16
2023-03-15T17:13:01.163Z,7.00
2023-03-15T17:15:29.344Z,6.98
2023-03-15T17:17:58.944Z,6.89
2023-03-15T17:20:29.906Z,6.62
2023-03-15T17:23:04.507Z,6.72
2023-03-15T17:25:31.729Z,6.52
2023-03-15T17:27:58.180Z,6.51
2023-03-15T17:30:28.444Z,6.42
2023-03-15T17:32:55.272Z,6.28
2023-03-15T17:35:25.038Z,6.13
2023-03-15T17:37:51.569Z,6.15
2023-03-15T17:40:28.261Z,6.08
2023-03-15T17:42:56.398Z,-145.28
2023-03-15T17:45:25.925Z,-145.28
2023-03-15T17:47:54.088Z,-145.28
2023-03-15T17:50:22.439Z,-145.28
2023-03-15T17:52:53.991Z,-145.28
2023-03-15T17:55:22.633Z,-145.28
2023-03-15T17:57:55.255Z,-145.28
2023-03-15T18:00:23.276Z,-145.28
2023-03-15T18:02:55.651Z,-145.28
2023-03-15T18:05:25.605Z,-145.28
2023-03-15T18:08:00.389Z,-145.28
2023-03-15T18:10:35.506Z,-145.28
2023-03-15T18:13:02.512Z,-145.28
2023-03-15T18:15:29.014Z,-145.28
2023-03-15T18:17:55.548Z,-145.28
2023-03-15T18:20:23.972Z,-145.28
2023-03-15T18:22:51.322Z,-145.28
2023-03-15T18:25:26.655Z,-145.28
2023-03-15T18:27:53.347Z,-145.28
2023-03-15T18:30:23.041Z,-145.28
2023-03-15T18:32:50.610Z,-145.28
2023-03-15T18:35:23.494Z,-145.28
2023-03-15T18:37:50.012Z,-145.28
2023-03-15T18:40:18.786Z,-145.28
2023-03-15T18:42:46.806Z,-145.28
2023-03-15T18:45:30.994Z,-145.28
2023-03-15T18:47:59.817Z,-145.28
2023-03-15T18:50:29.218Z,-145.28
2023-03-15T18:52:56.026Z,-145.28
2023-03-15T18:55:22.805Z,-145.28
2023-03-15T18:57:51.065Z,-145.28
2023-03-15T19:00:25.849Z,-145.28
2023-03-15T19:02:55.483Z,-145.28
2023-03-15T19:05:22.149Z,-145.28
2023-03-15T19:07:51.186Z,-145.28
2023-03-15T19:10:20.140Z,-145.28
2023-03-15T19:12:48.262Z,-145.28
2023-03-15T19:15:17.422Z,-145.28
2023-03-15T19:17:49.733Z,-145.28
2023-03-15T19:20:23.194Z,-145.28
2023-03-15T19:22:51.531Z,-145.28
2023-03-15T19:25:18.619Z,-145.28
2023-03-15T19:27:45.295Z,-145.28
2023-03-15T19:30:17.819Z,-145.28
2023-03-15T19:32:47.484Z,-145.28
2023-03-15T19:35:14.521Z,-145.28
2023-03-15T19:37:42.488Z,-145.28
2023-03-15T19:40:10.091Z,-145.28
2023-03-15T19:42:36.568Z,-145.28
2023-03-15T19:45:03.284Z,-145.28
2023-03-15T19:47:29.716Z,-145.28
2023-03-15T19:49:56.177Z,-145.28
2023-03-15T19:52:23.215Z,-145.28
2023-03-15T19:54:50.135Z,-145.28
2023-03-15T19:57:16.589Z,-145.28
2023-03-15T19:59:43.015Z,-145.28
2023-03-15T20:02:13.698Z,-145.28
2023-03-15T20:04:40.348Z,-145.28
2023-03-15T20:07:06.750Z,-145.28
2023-03-15T20:09:38.711Z,-145.28
2023-03-15T20:12:14.006Z,-145.28
2023-03-15T20:14:40.717Z,-145.28
2023-03-15T20:17:07.243Z,-145.28
2023-03-15T20:19:33.931Z,-145.28
2023-03-15T20:22:00.433Z,-145.28
2023-03-15T20:24:26.876Z,-145.28
2023-03-15T20:26:53.987Z,-145.28
2023-03-15T20:29:22.378Z,-145.28
2023-03-15T20:31:49.450Z,-145.28
2023-03-15T20:34:16.805Z,-145.28
2023-03-15T20:36:43.257Z,-145.28
2023-03-15T20:39:12.818Z,-145.28
2023-03-15T20:41:39.384Z,-145.28
2023-03-15T20:44:06.612Z,-145.28
2023-03-15T20:46:34.040Z,-145.28
2023-03-15T20:49:00.481Z,-145.28
2023-03-15T20:51:27.136Z,-145.28
2023-03-15T20:53:53.934Z,-145.28
2023-03-15T20:56:21.837Z,-145.28
2023-03-15T20:58:48.306Z,-145.28
2023-03-15T21:01:17.694Z,-145.28
2023-03-15T21:03:45.375Z,-145.28
2023-03-15T21:06:13.195Z,-145.28
2023-03-15T21:08:39.860Z,-145.28
2023-03-15T21:11:06.697Z,-145.28
2023-03-15T21:13:34.378Z,-145.28
2023-03-15T21:16:03.991Z,-145.28
2023-03-15T21:18:31.973Z,-145.28
2023-03-15T21:21:01.492Z,-145.28
2023-03-15T21:23:31.153Z,-145.28
2023-03-15T21:25:59.198Z,-145.28
2023-03-15T21:28:26.502Z,-145.28
2023-03-15T21:30:53.931Z,-145.28
2023-03-15T21:33:22.454Z,-145.28
2023-03-15T21:35:49.398Z,-145.28
2023-03-15T21:38:16.222Z,-145.28
2023-03-15T21:40:47.091Z,-145.28
2023-03-15T21:43:16.450Z,-145.28
2023-03-15T21:45:43.018Z,-145.28
2023-03-15T21:48:09.605Z,-145.28
2023-03-15T21:50:36.501Z,-145.28
2023-03-15T21:53:03.708Z,-145.28
2023-03-15T21:55:33.481Z,-145.28
2023-03-15T21:58:04.815Z,-145.28
2023-03-15T22:00:31.622Z,-145.28
2023-03-15T22:02:58.035Z,-145.28
2023-03-15T22:05:24.781Z,-145.28
2023-03-15T22:07:51.228Z,-145.28
2023-03-15T22:10:19.653Z,-145.28
2023-03-15T22:12:46.271Z,-145.28
2023-03-15T22:15:13.384Z,-145.28
2023-03-15T22:17:39.989Z,-145.28
2023-03-15T22:20:17.072Z,-145.28
2023-03-15T22:22:44.929Z,-145.28
2023-03-15T22:25:11.383Z,-145.28
2023-03-15T22:27:37.842Z,-145.28
2023-03-15T22:30:07.157Z,-145.28
2023-03-15T22:32:33.580Z,-145.28
2023-03-15T22:35:00.228Z,-145.28
2023-03-15T22:37:26.783Z,-145.28
2023-03-15T22:39:53.223Z,-145.28
2023-03-15T22:42:19.660Z,-145.28
2023-03-15T22:44:46.068Z,-145.28
2023-03-15T22:47:12.493Z,-145.28
2023-03-15T22:49:38.941Z,-145.28
2023-03-15T22:52:05.720Z,-145.28
2023-03-15T22:54:32.200Z,-145.28
2023-03-15T22:56:58.624Z,-145.28
2023-03-15T22:59:28.927Z,-145.28
2023-03-15T23:01:56.762Z,-145.28
2023-03-15T23:04:23.987Z,-145.28
2023-03-15T23:06:51.696Z,-145.28
2023-03-15T23:09:18.129Z,-145.28
2023-03-15T23:11:44.613Z,-145.28
2023-03-15T23:14:11.266Z,-145.28
2023-03-15T23:16:37.688Z,-145.28
2023-03-15T23:19:04.993Z,-145.28
2023-03-15T23:21:31.451Z,-145.28
2023-03-15T23:23:57.939Z,-145.28
2023-03-15T23:26:25.638Z,-145.28
2023-03-15T23:28:53.442Z,-145.28
2023-03-15T23:31:20.209Z,-145.28
2023-03-15T23:33:49.268Z,-145.28
2023-03-15T23:36:15.758Z,-145.28
2023-03-15T23:38:42.287Z,-145.28
2023-03-15T23:41:09.464Z,-145.28
2023-03-15T23:43:35.952Z,-145.28
2023-03-15T23:46:05.001Z,-145.28
2023-03-15T23:48:35.234Z,-145.28
2023-03-15T23:51:03.150Z,-145.28
2023-03-15T23:53:29.665Z,-145.28
2023-03-15T23:55:56.352Z,-145.28
2023-03-15T23:58:22.946Z,-145.28
